Time;durP1;ratioP1;P1;durP2;ratioP2;P2;SDS_P1;SDS_P2;PMS_P1;PMS_P2;Temp;Humidity;BMP_temperature;BMP_pressure;BME280_temperature;BME280_humidity;BME280_pressure;Samples;Min_cycle;Max_cycle;Signal;HPM_P1;HPM_P2
2021/12/30 00:02:13;;;;;;;15.48;3.25;;;8.00;99.90;;;;;;5032199;28;20041;-82
2021/12/30 00:04:39;;;;;;;14.77;2.40;;;8.00;99.90;;;;;;5048893;28;20103;-80
2021/12/30 00:07:05;;;;;;;14.63;1.60;;;8.00;99.90;;;;;;5032158;28;20037;-84
2021/12/30 00:09:31;;;;;;;18.85;2.97;;;8.10;99.90;;;;;;5032448;28;20041;-80
2021/12/30 00:11:57;;;;;;;34.25;4.75;;;8.10;99.90;;;;;;5015920;28;20412;-80
2021/12/30 00:14:22;;;;;;;29.45;3.50;;;8.00;99.90;;;;;;5032104;28;20455;-85
2021/12/30 00:16:48;;;;;;;32.75;4.82;;;8.00;99.90;;;;;;5031856;28;20385;-84
2021/12/30 00:19:14;;;;;;;22.38;3.33;;;8.10;99.90;;;;;;5015590;28;20067;-80
2021/12/30 00:21:39;;;;;;;36.28;4.45;;;8.10;99.90;;;;;;5031851;28;20081;-84
2021/12/30 00:24:06;;;;;;;19.67;3.53;;;8.20;99.90;;;;;;5015470;28;20136;-80
2021/12/30 00:26:31;;;;;;;36.33;4.10;;;8.20;99.90;;;;;;5031837;28;20124;-81
2021/12/30 00:28:58;;;;;;;29.60;4.38;;;8.20;99.90;;;;;;5031814;28;20041;-85
2021/12/30 00:31:24;;;;;;;36.00;6.47;;;8.20;99.90;;;;;;5015475;28;20048;-84
2021/12/30 00:33:49;;;;;;;28.27;4.47;;;8.20;99.90;;;;;;5015386;28;20095;-81
2021/12/30 00:36:15;;;;;;;35.55;4.72;;;8.20;99.90;;;;;;5015557;28;20041;-84
2021/12/30 00:38:43;;;;;;;38.80;6.28;;;8.30;99.90;;;;;;5015154;28;20048;-84
2021/12/30 00:41:10;;;;;;;15.85;3.17;;;8.30;99.90;;;;;;5031880;28;20492;-84
2021/12/30 00:43:36;;;;;;;29.88;5.28;;;8.30;99.90;;;;;;5031609;28;20041;-80
2021/12/30 00:46:04;;;;;;;36.15;6.55;;;8.30;99.90;;;;;;5031864;28;20042;-81
2021/12/30 00:48:30;;;;;;;30.42;4.57;;;8.30;99.90;;;;;;5031613;28;20049;-80
2021/12/30 00:50:56;;;;;;;40.60;6.50;;;8.20;99.90;;;;;;5031898;28;20056;-80
2021/12/30 00:53:22;;;;;;;23.17;4.57;;;8.20;99.90;;;;;;5048397;28;20129;-85
2021/12/30 00:55:48;;;;;;;28.02;4.45;;;8.20;99.90;;;;;;5015267;28;20048;-83
2021/12/30 00:58:14;;;;;;;29.42;3.80;;;8.20;99.90;;;;;;5014853;28;20136;-85
2021/12/30 01:00:42;;;;;;;40.10;6.90;;;8.20;99.90;;;;;;5031399;28;20050;-84
2021/12/30 01:03:09;;;;;;;32.60;6.03;;;8.20;99.90;;;;;;5031333;28;20515;-80
2021/12/30 01:05:35;;;;;;;28.05;3.92;;;8.30;99.90;;;;;;5034645;28;20072;-84
2021/12/30 01:08:03;;;;;;;25.02;4.25;;;8.30;99.90;;;;;;5035354;28;20132;-84
2021/12/30 01:10:29;;;;;;;29.38;4.43;;;8.20;99.90;;;;;;5035416;28;20041;-85
2021/12/30 01:12:59;;;;;;;26.95;5.53;;;8.10;99.90;;;;;;5035353;28;20041;-84
2021/12/30 01:15:34;;;;;;;31.08;5.10;;;8.20;99.90;;;;;;5019168;28;20086;-84
2021/12/30 01:21:09;;;;;;;35.63;5.63;;;8.20;99.90;;;;;;4978810;28;20125;-80
2021/12/30 01:23:35;;;;;;;27.15;4.18;;;8.30;99.90;;;;;;4978316;28;20050;-80
2021/12/30 01:26:01;;;;;;;33.42;5.85;;;8.20;99.90;;;;;;4982174;28;20053;-82
2021/12/30 01:28:27;;;;;;;48.25;7.43;;;8.30;99.90;;;;;;5035389;28;20387;-84
2021/12/30 01:30:54;;;;;;;33.80;5.47;;;8.10;99.90;;;;;;5034994;28;20439;-81
2021/12/30 01:33:21;;;;;;;38.85;5.53;;;8.20;99.90;;;;;;5035064;28;20136;-81
2021/12/30 01:35:47;;;;;;;29.70;6.13;;;8.40;99.90;;;;;;5018893;28;20369;-81
2021/12/30 01:38:16;;;;;;;44.20;7.47;;;8.10;99.90;;;;;;5034719;28;20085;-80
2021/12/30 01:40:46;;;;;;;37.22;5.55;;;8.10;99.90;;;;;;5018705;28;20037;-84
2021/12/30 01:43:13;;;;;;;24.00;5.05;;;8.10;99.90;;;;;;5018388;28;20472;-85
2021/12/30 01:45:41;;;;;;;23.02;4.32;;;8.20;99.90;;;;;;5018600;28;20492;-81
2021/12/30 01:48:07;;;;;;;35.88;5.05;;;8.20;99.90;;;;;;5018641;28;20498;-84
2021/12/30 01:50:33;;;;;;;36.88;5.28;;;8.20;99.90;;;;;;5034684;28;20045;-85
2021/12/30 01:52:59;;;;;;;23.67;3.70;;;8.20;99.90;;;;;;5018226;28;20132;-80
2021/12/30 01:55:26;;;;;;;8.73;2.38;;;8.10;99.90;;;;;;5034853;28;20560;-81
2021/12/30 01:57:51;;;;;;;23.20;4.72;;;8.20;99.90;;;;;;5034501;28;20136;-84
2021/12/30 02:00:22;;;;;;;16.55;3.28;;;8.20;99.90;;;;;;5018073;28;20099;-80
2021/12/30 02:02:48;;;;;;;22.73;4.32;;;8.20;99.90;;;;;;5034438;28;20102;-81
2021/12/30 02:05:14;;;;;;;18.52;4.15;;;8.20;99.90;;;;;;5018046;28;20124;-84
2021/12/30 02:07:40;;;;;;;33.92;4.65;;;8.20;99.90;;;;;;5034260;28;20041;-81
2021/12/30 02:10:06;;;;;;;28.38;3.78;;;8.10;99.90;;;;;;5034331;28;20412;-81
2021/12/30 02:12:35;;;;;;;36.65;5.65;;;8.10;99.90;;;;;;5017890;28;20052;-85
2021/12/30 02:15:02;;;;;;;34.10;4.47;;;8.10;99.90;;;;;;5033804;28;20052;-84
2021/12/30 02:17:28;;;;;;;29.42;4.53;;;8.00;99.90;;;;;;5033595;28;20052;-84
2021/12/30 02:19:59;;;;;;;42.55;6.32;;;7.90;99.90;;;;;;5001463;28;20037;-81
2021/12/30 02:22:25;;;;;;;41.35;6.53;;;7.90;99.90;;;;;;5017688;28;20041;-84
2021/12/30 02:24:51;;;;;;;42.03;5.95;;;8.10;99.90;;;;;;5034193;28;20041;-85
2021/12/30 02:27:17;;;;;;;39.80;5.72;;;7.90;99.90;;;;;;5017649;28;20049;-81
2021/12/30 02:29:43;;;;;;;52.40;7.07;;;7.90;99.90;;;;;;5017620;28;20041;-85
2021/12/30 02:32:10;;;;;;;42.15;6.35;;;7.80;99.90;;;;;;5033936;28;20046;-80
2021/12/30 02:34:39;;;;;;;39.10;6.68;;;7.70;99.90;;;;;;5034027;28;20451;-85
2021/12/30 02:37:06;;;;;;;32.15;5.43;;;7.50;99.90;;;;;;5017393;28;20046;-80
2021/12/30 02:39:32;;;;;;;47.80;7.40;;;7.50;99.90;;;;;;5017699;28;20045;-85
2021/12/30 02:41:58;;;;;;;34.45;5.75;;;7.50;99.90;;;;;;5017571;28;20087;-84
2021/12/30 02:44:24;;;;;;;31.98;4.90;;;7.50;99.90;;;;;;5033652;28;20075;-81
2021/12/30 02:46:52;;;;;;;29.13;5.20;;;7.40;99.90;;;;;;5017421;28;20063;-81
2021/12/30 02:49:18;;;;;;;33.35;6.15;;;7.40;99.90;;;;;;5033700;28;20050;-80
2021/12/30 02:51:44;;;;;;;27.85;6.95;;;7.40;99.90;;;;;;5033850;28;20412;-84
2021/12/30 02:54:10;;;;;;;30.13;5.30;;;7.50;99.90;;;;;;5017150;28;20045;-80
2021/12/30 02:56:36;;;;;;;27.83;4.70;;;7.50;99.90;;;;;;5016843;28;20098;-80
2021/12/30 02:59:03;;;;;;;26.98;4.90;;;7.70;99.90;;;;;;5016819;28;20060;-85
2021/12/30 03:01:31;;;;;;;39.42;6.25;;;7.60;99.90;;;;;;5016915;28;20049;-84
2021/12/30 03:04:00;;;;;;;39.95;5.95;;;7.50;99.90;;;;;;5033195;28;20049;-80
2021/12/30 03:06:26;;;;;;;40.67;5.55;;;7.50;99.90;;;;;;5033326;28;20119;-80
2021/12/30 03:08:53;;;;;;;34.35;6.43;;;7.60;99.90;;;;;;5016775;28;20052;-85
2021/12/30 03:11:20;;;;;;;28.63;4.63;;;7.80;99.90;;;;;;5033189;28;20041;-81
2021/12/30 03:13:46;;;;;;;34.50;6.10;;;7.70;99.90;;;;;;5033097;28;20049;-80
2021/12/30 03:16:20;;;;;;;26.52;4.13;;;7.70;99.90;;;;;;5033175;28;20068;-81
2021/12/30 03:18:47;;;;;;;41.60;7.03;;;7.80;99.90;;;;;;5033198;28;20044;-85
2021/12/30 03:21:16;;;;;;;28.98;5.82;;;7.80;99.90;;;;;;5016498;28;20045;-85
2021/12/30 03:23:42;;;;;;;20.85;4.45;;;7.90;99.90;;;;;;5016784;28;20544;-80
2021/12/30 03:26:09;;;;;;;54.53;8.10;;;8.00;99.90;;;;;;5032890;28;20049;-81
2021/12/30 03:28:36;;;;;;;39.30;6.22;;;7.80;99.90;;;;;;5015899;28;20103;-80
2021/12/30 03:31:02;;;;;;;56.83;10.40;;;7.80;99.90;;;;;;5033071;28;20045;-85
2021/12/30 03:33:29;;;;;;;58.40;8.55;;;7.80;99.90;;;;;;5032962;28;20052;-84
2021/12/30 03:35:59;;;;;;;45.20;9.00;;;7.80;99.90;;;;;;5016323;28;20095;-84
2021/12/30 03:38:26;;;;;;;48.10;8.65;;;7.70;99.90;;;;;;5032970;28;20522;-80
2021/12/30 03:40:52;;;;;;;53.42;8.73;;;7.70;99.90;;;;;;5016242;28;20068;-85
2021/12/30 03:43:18;;;;;;;42.28;7.28;;;7.70;99.90;;;;;;5032599;28;20068;-85
2021/12/30 03:45:44;;;;;;;44.50;7.95;;;7.90;99.90;;;;;;5032609;28;20037;-82
2021/12/30 03:48:11;;;;;;;34.95;6.53;;;7.70;99.90;;;;;;5032480;28;20042;-81
2021/12/30 03:50:43;;;;;;;48.75;9.68;;;7.80;99.90;;;;;;5015956;28;20053;-84
2021/12/30 03:53:11;;;;;;;61.43;11.80;;;7.90;99.90;;;;;;5016987;28;20049;-85
2021/12/30 03:55:37;;;;;;;69.40;12.02;;;7.70;99.90;;;;;;5048905;28;20303;-80
2021/12/30 03:58:03;;;;;;;61.38;10.93;;;7.80;99.90;;;;;;5032088;28;20057;-80
2021/12/30 04:00:29;;;;;;;58.95;9.73;;;7.80;99.90;;;;;;5032482;28;20045;-85
2021/12/30 04:02:55;;;;;;;41.63;7.60;;;7.90;99.90;;;;;;5032055;28;20049;-84
2021/12/30 04:05:22;;;;;;;52.78;8.90;;;7.90;99.90;;;;;;5032467;28;20064;-83
2021/12/30 04:07:48;;;;;;;59.75;10.13;;;7.90;99.90;;;;;;5032199;28;20045;-85
2021/12/30 04:10:17;;;;;;;53.75;8.82;;;7.90;99.90;;;;;;5032035;28;20076;-80
2021/12/30 04:12:44;;;;;;;56.97;9.80;;;8.10;99.90;;;;;;5032338;28;20556;-84
2021/12/30 04:15:11;;;;;;;52.13;9.85;;;8.00;99.90;;;;;;5032105;28;20041;-80
2021/12/30 04:17:37;;;;;;;42.08;7.97;;;8.10;99.90;;;;;;5015534;28;20124;-81
2021/12/30 04:20:07;;;;;;;48.33;8.60;;;8.20;99.90;;;;;;5032122;28;20041;-85
2021/12/30 04:22:34;;;;;;;33.40;7.85;;;8.30;99.90;;;;;;5016002;28;20412;-85
2021/12/30 04:25:00;;;;;;;32.63;6.53;;;8.40;99.90;;;;;;5032277;28;20449;-80
2021/12/30 04:27:26;;;;;;;20.85;5.28;;;8.60;99.90;;;;;;5032187;28;20128;-81
2021/12/30 04:29:51;;;;;;;24.85;5.10;;;8.60;99.90;;;;;;5031953;28;20045;-81
2021/12/30 04:32:17;;;;;;;48.53;9.70;;;8.70;99.90;;;;;;5015325;28;20056;-83
2021/12/30 04:34:43;;;;;;;42.38;7.95;;;8.80;99.90;;;;;;5015366;28;20484;-85
2021/12/30 04:37:09;;;;;;;42.38;7.03;;;8.90;99.90;;;;;;5015704;28;20045;-84
2021/12/30 04:39:34;;;;;;;42.28;9.00;;;8.80;99.90;;;;;;5031401;28;20072;-81
2021/12/30 04:42:01;;;;;;;46.70;9.45;;;8.80;99.90;;;;;;5015219;28;20084;-84
2021/12/30 04:44:28;;;;;;;33.63;7.57;;;8.80;99.90;;;;;;5015490;28;20053;-81
2021/12/30 04:46:55;;;;;;;45.97;9.23;;;8.70;99.90;;;;;;5031515;28;20056;-81
2021/12/30 04:49:21;;;;;;;39.85;6.40;;;8.70;99.90;;;;;;5031967;28;20041;-80
2021/12/30 04:51:47;;;;;;;42.90;6.95;;;8.70;99.90;;;;;;5032039;28;20053;-81
2021/12/30 04:54:12;;;;;;;51.42;8.70;;;8.80;99.90;;;;;;5031541;28;20484;-81
2021/12/30 04:56:38;;;;;;;48.60;9.18;;;8.80;99.90;;;;;;5031213;28;20135;-84
2021/12/30 04:59:04;;;;;;;72.80;14.60;;;8.80;99.90;;;;;;5015142;28;20069;-82
2021/12/30 05:01:29;;;;;;;68.45;11.55;;;8.90;99.90;;;;;;5031356;28;20393;-83
2021/12/30 05:03:55;;;;;;;29.55;6.53;;;9.00;99.90;;;;;;5015325;28;20084;-80
2021/12/30 05:06:21;;;;;;;38.70;8.40;;;9.10;99.90;;;;;;5015293;28;20052;-82
2021/12/30 05:08:47;;;;;;;52.67;10.52;;;9.20;99.90;;;;;;5031684;28;20076;-85
2021/12/30 05:11:12;;;;;;;63.20;11.85;;;9.40;99.90;;;;;;5015104;28;20042;-84
2021/12/30 05:13:38;;;;;;;54.97;10.88;;;9.50;99.90;;;;;;5031225;28;20045;-81
2021/12/30 05:16:04;;;;;;;56.90;8.85;;;9.60;99.90;;;;;;5047936;28;20084;-81
2021/12/30 05:18:32;;;;;;;24.33;7.35;;;9.70;99.90;;;;;;5014913;28;20054;-81
2021/12/30 05:21:00;;;;;;;30.33;8.07;;;9.90;99.90;;;;;;5014823;28;20037;-81
2021/12/30 05:23:27;;;;;;;41.38;11.27;;;9.90;99.90;;;;;;5031200;28;20099;-81
2021/12/30 05:25:53;;;;;;;61.80;14.27;;;9.90;99.90;;;;;;5031218;28;20037;-81
2021/12/30 05:28:18;;;;;;;99.60;16.85;;;9.90;99.90;;;;;;5031108;28;20072;-85
2021/12/30 05:30:44;;;;;;;82.35;14.90;;;9.80;99.90;;;;;;5031139;28;20037;-84
2021/12/30 05:33:10;;;;;;;69.10;16.35;;;9.80;99.90;;;;;;5014682;28;20042;-85
2021/12/30 05:35:36;;;;;;;69.55;14.90;;;9.80;99.90;;;;;;5014694;28;20081;-80
2021/12/30 05:38:03;;;;;;;62.22;14.23;;;9.80;99.90;;;;;;5031212;28;20073;-81
2021/12/30 05:40:30;;;;;;;88.45;18.20;;;9.80;99.90;;;;;;5014574;28;20045;-80
2021/12/30 05:42:56;;;;;;;41.47;11.50;;;9.80;99.90;;;;;;5031022;28;20046;-82
2021/12/30 05:45:21;;;;;;;50.20;12.68;;;9.90;99.90;;;;;;5031363;28;20045;-81
2021/12/30 05:47:50;;;;;;;47.10;12.57;;;9.90;99.90;;;;;;5047790;28;20041;-80
2021/12/30 05:50:21;;;;;;;62.15;17.02;;;9.90;99.90;;;;;;5015980;28;20095;-84
2021/12/30 05:52:48;;;;;;;43.47;12.90;;;10.10;99.90;;;;;;5051514;28;20045;-80
2021/12/30 05:55:15;;;;;;;41.63;14.77;;;10.00;99.90;;;;;;5051617;28;20132;-80
2021/12/30 05:57:42;;;;;;;48.85;14.63;;;10.00;99.90;;;;;;5050756;28;20057;-81
2021/12/30 06:00:10;;;;;;;53.28;16.75;;;10.00;99.90;;;;;;5034533;28;20049;-85
2021/12/30 06:02:36;;;;;;;44.53;12.52;;;10.00;99.90;;;;;;5017997;28;20069;-85
2021/12/30 06:05:02;;;;;;;40.13;15.20;;;10.00;99.90;;;;;;5018489;28;20038;-85
2021/12/30 06:07:28;;;;;;;30.58;9.52;;;10.10;99.90;;;;;;5034520;28;20044;-81
2021/12/30 06:09:54;;;;;;;33.88;11.15;;;10.20;99.90;;;;;;5034524;28;20496;-81
2021/12/30 06:12:19;;;;;;;16.40;6.80;;;10.10;99.90;;;;;;5034645;28;20547;-83
2021/12/30 06:14:45;;;;;;;44.22;14.52;;;10.10;99.90;;;;;;5034428;28;20128;-85
2021/12/30 06:17:13;;;;;;;24.98;7.70;;;10.20;99.90;;;;;;5034574;28;20052;-85
2021/12/30 06:19:39;;;;;;;19.17;7.10;;;10.20;99.90;;;;;;5018351;28;20057;-85
2021/12/30 06:22:06;;;;;;;29.27;12.20;;;10.20;99.90;;;;;;5034206;28;20045;-82
2021/12/30 06:24:32;;;;;;;27.48;11.52;;;10.20;99.90;;;;;;5034507;28;20508;-81
2021/12/30 06:26:58;;;;;;;19.05;9.32;;;10.30;99.90;;;;;;5034435;28;20404;-81
2021/12/30 06:29:24;;;;;;;40.30;14.80;;;10.30;99.90;;;;;;5034079;28;20050;-82
2021/12/30 06:31:50;;;;;;;41.30;15.63;;;10.40;99.90;;;;;;5033944;28;20050;-81
2021/12/30 06:34:15;;;;;;;30.67;9.43;;;10.40;99.90;;;;;;5017594;28;20034;-81
2021/12/30 06:36:41;;;;;;;43.67;16.10;;;10.50;99.90;;;;;;5017399;28;20045;-85
2021/12/30 06:39:07;;;;;;;47.35;16.48;;;10.40;99.90;;;;;;5017458;28;20056;-84
2021/12/30 06:41:33;;;;;;;37.10;12.60;;;10.50;99.90;;;;;;5050593;28;20131;-84
2021/12/30 06:43:59;;;;;;;24.88;11.45;;;10.50;99.90;;;;;;5033651;28;20041;-84
2021/12/30 06:46:25;;;;;;;45.92;15.50;;;10.50;99.90;;;;;;5033662;28;20045;-81
2021/12/30 06:48:51;;;;;;;46.53;17.90;;;10.60;99.90;;;;;;5033718;28;20037;-83
2021/12/30 06:51:18;;;;;;;29.60;12.77;;;10.60;99.90;;;;;;5033757;28;20091;-83
2021/12/30 06:53:45;;;;;;;25.55;11.35;;;10.60;99.90;;;;;;5016945;28;20072;-79
2021/12/30 06:56:11;;;;;;;44.60;16.10;;;10.70;99.90;;;;;;5033486;28;20092;-82
2021/12/30 06:58:37;;;;;;;40.17;15.38;;;10.60;99.90;;;;;;5033391;28;20061;-83
2021/12/30 07:01:03;;;;;;;43.10;16.05;;;10.60;99.90;;;;;;5033268;28;20045;-83
2021/12/30 07:03:29;;;;;;;35.22;12.98;;;10.60;99.90;;;;;;5049165;28;20106;-82
2021/12/30 07:05:55;;;;;;;23.48;10.25;;;10.70;99.90;;;;;;5016794;28;20050;-83
2021/12/30 07:08:24;;;;;;;28.10;11.95;;;10.70;99.90;;;;;;5016749;28;20052;-83
2021/12/30 07:10:50;;;;;;;22.10;8.55;;;10.60;99.90;;;;;;5016698;28;20049;-84
2021/12/30 07:13:16;;;;;;;26.90;9.88;;;10.60;99.90;;;;;;5033059;28;20045;-84
2021/12/30 07:15:42;;;;;;;18.63;8.38;;;10.60;99.90;;;;;;5033076;28;20041;-83
2021/12/30 07:18:08;;;;;;;22.60;10.57;;;10.70;99.90;;;;;;5016560;28;20132;-79
2021/12/30 07:20:34;;;;;;;12.65;5.43;;;10.60;99.90;;;;;;5033054;28;20068;-80
2021/12/30 07:22:59;;;;;;;13.50;6.15;;;10.80;99.90;;;;;;5000372;28;20092;-80
2021/12/30 07:25:26;;;;;;;16.33;6.95;;;10.70;99.90;;;;;;5033216;28;20128;-80
2021/12/30 07:27:54;;;;;;;11.02;4.53;;;10.70;99.90;;;;;;5016420;28;20095;-80
2021/12/30 07:30:22;;;;;;;15.07;6.53;;;10.70;99.90;;;;;;5032824;28;20045;-84
2021/12/30 07:32:48;;;;;;;9.20;5.13;;;10.70;99.90;;;;;;5032848;28;20053;-84
2021/12/30 07:35:16;;;;;;;14.52;7.13;;;10.70;99.90;;;;;;5016231;28;20052;-84
2021/12/30 07:37:42;;;;;;;10.13;5.68;;;10.70;99.90;;;;;;5032597;28;20042;-84
2021/12/30 07:40:08;;;;;;;14.30;7.70;;;10.70;99.90;;;;;;5032677;28;20427;-80
2021/12/30 07:42:34;;;;;;;13.18;6.95;;;10.70;99.90;;;;;;5032542;28;20045;-84
2021/12/30 07:44:59;;;;;;;14.77;7.30;;;10.60;99.90;;;;;;5032598;28;20056;-83
2021/12/30 07:47:25;;;;;;;5.80;3.85;;;10.70;99.90;;;;;;5032919;28;20046;-82
2021/12/30 07:49:51;;;;;;;8.30;4.82;;;10.70;99.90;;;;;;5032583;28;20084;-85
2021/12/30 07:52:16;;;;;;;9.23;3.45;;;10.70;99.90;;;;;;5016279;28;20116;-85
2021/12/30 07:54:44;;;;;;;10.55;6.03;;;10.80;99.90;;;;;;5032694;28;20052;-80
2021/12/30 07:57:20;;;;;;;11.50;6.82;;;10.80;99.90;;;;;;5032331;28;20049;-80
2021/12/30 07:59:47;;;;;;;5.65;2.88;;;10.90;99.90;;;;;;5032316;28;20061;-85
2021/12/30 08:02:13;;;;;;;8.23;5.15;;;10.90;99.90;;;;;;5015812;28;20080;-80
2021/12/30 08:04:39;;;;;;;8.70;5.60;;;11.00;99.90;;;;;;5015893;28;20033;-80
2021/12/30 08:07:05;;;;;;;5.90;3.50;;;10.90;99.90;;;;;;5016051;28;20444;-81
2021/12/30 08:09:30;;;;;;;6.07;4.00;;;10.90;99.90;;;;;;5016151;28;20072;-84
2021/12/30 08:11:56;;;;;;;5.10;3.95;;;10.90;99.90;;;;;;5032395;28;20053;-83
2021/12/30 08:14:22;;;;;;;3.78;2.47;;;10.90;99.90;;;;;;5015783;28;20086;-79
2021/12/30 08:16:48;;;;;;;3.30;2.30;;;10.90;99.90;;;;;;5015894;28;20085;-80
2021/12/30 08:19:14;;;;;;;3.42;2.92;;;10.90;99.90;;;;;;5015681;28;20128;-84
2021/12/30 08:21:42;;;;;;;3.72;2.85;;;11.00;99.90;;;;;;5031905;28;20045;-84
2021/12/30 08:24:09;;;;;;;4.18;2.33;;;11.00;99.90;;;;;;5015561;28;20045;-85
2021/12/30 08:26:35;;;;;;;5.13;2.83;;;11.00;99.90;;;;;;5015463;28;20087;-81
2021/12/30 08:29:00;;;;;;;7.57;4.18;;;10.90;99.90;;;;;;5015482;28;20116;-84
2021/12/30 08:31:26;;;;;;;2.95;1.73;;;11.00;99.90;;;;;;5015467;28;20052;-84
2021/12/30 08:33:52;;;;;;;6.05;4.28;;;11.00;99.90;;;;;;5015290;28;20038;-85
2021/12/30 08:36:18;;;;;;;2.97;2.20;;;11.00;99.90;;;;;;5015287;28;20041;-81
2021/12/30 08:38:44;;;;;;;5.03;2.10;;;11.10;99.90;;;;;;5015529;28;20046;-84
2021/12/30 08:41:10;;;;;;;4.63;2.35;;;11.10;99.90;;;;;;5031747;28;20049;-82
2021/12/30 08:43:35;;;;;;;3.15;2.55;;;11.00;99.90;;;;;;5015133;28;20049;-85
2021/12/30 08:46:02;;;;;;;3.88;2.60;;;11.10;99.90;;;;;;5015102;28;20056;-81
2021/12/30 08:48:27;;;;;;;11.20;4.93;;;11.10;99.90;;;;;;5015149;28;20053;-85
2021/12/30 08:50:53;;;;;;;6.50;3.83;;;11.10;99.90;;;;;;5015242;28;20416;-84
2021/12/30 08:53:22;;;;;;;5.40;2.60;;;11.10;99.90;;;;;;5031719;28;20073;-84
2021/12/30 08:55:47;;;;;;;3.65;1.90;;;11.10;99.90;;;;;;5031363;28;20045;-80
2021/12/30 08:58:13;;;;;;;10.77;3.90;;;11.10;99.90;;;;;;5031311;28;20059;-80
2021/12/30 09:00:41;;;;;;;8.13;3.38;;;11.10;99.90;;;;;;5015051;28;20091;-80
2021/12/30 09:03:07;;;;;;;5.60;2.22;;;11.00;99.90;;;;;;5015324;28;20056;-81
2021/12/30 09:05:34;;;;;;;5.72;2.22;;;11.00;99.90;;;;;;5014802;28;20136;-84
2021/12/30 09:08:01;;;;;;;9.35;3.25;;;11.00;99.90;;;;;;5031550;28;20511;-85
2021/12/30 09:10:27;;;;;;;3.60;1.58;;;11.10;99.90;;;;;;5031305;28;20085;-85
2021/12/30 09:12:54;;;;;;;4.35;1.52;;;11.10;99.90;;;;;;5014907;28;20049;-84
2021/12/30 09:15:23;;;;;;;10.77;2.10;;;11.00;99.90;;;;;;5031389;28;20052;-80
2021/12/30 09:17:51;;;;;;;7.53;2.03;;;11.10;99.90;;;;;;5031225;28;20052;-85
2021/12/30 09:20:18;;;;;;;6.15;1.67;;;11.00;99.90;;;;;;5015332;28;20053;-84
2021/12/30 09:22:44;;;;;;;9.57;2.00;;;11.10;99.90;;;;;;5031077;28;20057;-84
2021/12/30 09:25:11;;;;;;;9.43;1.98;;;11.10;99.90;;;;;;5015602;28;20037;-81
2021/12/30 09:27:39;;;;;;;7.22;1.92;;;11.10;99.90;;;;;;5035534;28;20056;-84
2021/12/30 09:30:08;;;;;;;12.43;3.42;;;11.10;99.90;;;;;;5018664;28;20083;-85
2021/12/30 09:32:34;;;;;;;7.22;2.25;;;11.10;99.90;;;;;;5035430;28;20050;-85
2021/12/30 09:35:00;;;;;;;8.77;2.92;;;11.20;99.90;;;;;;5035442;28;20525;-85
2021/12/30 09:37:26;;;;;;;3.00;1.42;;;11.10;99.90;;;;;;5018665;28;20049;-84
2021/12/30 09:39:52;;;;;;;9.13;2.22;;;11.10;99.90;;;;;;5035079;28;20044;-85
2021/12/30 09:42:19;;;;;;;8.40;1.58;;;11.20;99.90;;;;;;5034823;28;20496;-84
2021/12/30 09:44:45;;;;;;;10.05;1.95;;;11.20;99.90;;;;;;5018664;28;20052;-80
2021/12/30 09:47:11;;;;;;;15.73;2.53;;;11.20;99.90;;;;;;5034844;28;20224;-80
2021/12/30 09:49:37;;;;;;;8.90;2.63;;;11.20;99.90;;;;;;5035199;28;20140;-85
2021/12/30 09:52:04;;;;;;;7.25;2.22;;;11.20;99.90;;;;;;5018340;28;20144;-80
2021/12/30 09:54:29;;;;;;;10.48;1.63;;;11.30;99.90;;;;;;5018618;28;20080;-81
2021/12/30 09:56:55;;;;;;;10.70;1.83;;;11.20;99.90;;;;;;5034562;28;20077;-85
2021/12/30 09:59:24;;;;;;;5.72;2.00;;;11.30;99.90;;;;;;5034494;28;20060;-81
2021/12/30 10:01:50;;;;;;;8.25;2.78;;;11.30;99.90;;;;;;5034423;28;20050;-84
2021/12/30 10:04:16;;;;;;;15.02;2.60;;;11.30;99.90;;;;;;5018351;28;20496;-80
2021/12/30 10:06:49;;;;;;;3.58;1.85;;;11.30;99.90;;;;;;5017953;28;20041;-84
2021/12/30 10:09:16;;;;;;;15.93;2.72;;;11.30;99.90;;;;;;5034734;28;20455;-80
2021/12/30 10:11:56;;;;;;;9.30;1.48;;;11.30;99.90;;;;;;5034350;28;20080;-81
2021/12/30 10:14:36;;;;;;;6.28;2.03;;;11.40;99.90;;;;;;5051016;28;20041;-85
2021/12/30 10:17:22;;;;;;;11.55;2.75;;;11.40;99.90;;;;;;5034337;28;20041;-80
2021/12/30 10:19:50;;;;;;;15.57;2.67;;;11.30;99.90;;;;;;5034718;28;20484;-80
2021/12/30 10:22:24;;;;;;;4.20;1.30;;;11.30;99.90;;;;;;5034268;28;20674;-80
2021/12/30 10:24:51;;;;;;;14.88;3.05;;;11.30;99.90;;;;;;5034640;28;20071;-83
2021/12/30 10:27:26;;;;;;;8.32;1.83;;;11.30;99.90;;;;;;5034359;28;20037;-82
2021/12/30 10:29:54;;;;;;;7.70;1.42;;;11.30;99.90;;;;;;5034157;28;20044;-85
2021/12/30 10:32:28;;;;;;;11.55;2.05;;;11.30;99.90;;;;;;5017716;28;20081;-81
2021/12/30 10:35:10;;;;;;;11.25;1.98;;;11.20;99.90;;;;;;5033939;28;20067;-84
2021/12/30 10:37:41;;;;;;;9.52;1.75;;;11.20;99.90;;;;;;5032842;28;20057;-81
2021/12/30 10:40:25;;;;;;;12.07;2.33;;;11.20;99.90;;;;;;5033791;28;20130;-85
2021/12/30 10:42:51;;;;;;;14.93;1.80;;;11.20;99.90;;;;;;5017261;28;20054;-84
2021/12/30 10:45:20;;;;;;;13.75;1.98;;;11.20;99.90;;;;;;5017230;28;20060;-86
2021/12/30 10:47:52;;;;;;;9.05;2.15;;;11.20;99.90;;;;;;5033556;28;20047;-85
2021/12/30 10:50:23;;;;;;;7.33;2.33;;;11.20;99.90;;;;;;5033902;28;20191;-81
2021/12/30 10:52:54;;;;;;;12.15;2.65;;;11.20;99.90;;;;;;5017006;28;20048;-85
2021/12/30 10:55:21;;;;;;;9.90;1.92;;;11.20;99.90;;;;;;5017442;28;20124;-81
2021/12/30 10:57:47;;;;;;;8.75;2.00;;;11.20;99.90;;;;;;5033735;28;20515;-85
2021/12/30 11:00:31;;;;;;;15.43;2.58;;;11.20;99.90;;;;;;5033672;28;20049;-85
2021/12/30 11:03:20;;;;;;;13.35;2.17;;;11.20;99.90;;;;;;5033376;28;20049;-86
2021/12/30 11:06:17;;;;;;;12.93;2.50;;;11.20;99.90;;;;;;5033723;28;20076;-85
2021/12/30 11:08:43;;;;;;;11.60;2.50;;;11.10;99.90;;;;;;5050180;28;20483;-80
2021/12/30 11:11:26;;;;;;;17.15;3.50;;;11.20;99.90;;;;;;5033572;28;20104;-80
2021/12/30 11:13:59;;;;;;;26.40;4.13;;;11.20;99.90;;;;;;5033189;28;20041;-81
2021/12/30 11:16:25;;;;;;;19.85;3.95;;;11.10;99.90;;;;;;5016862;28;20041;-86
2021/12/30 11:18:51;;;;;;;26.77;3.92;;;11.20;99.90;;;;;;5016578;28;20373;-80
2021/12/30 11:21:39;;;;;;;29.00;4.53;;;11.20;99.90;;;;;;5016748;28;20522;-80
2021/12/30 11:24:06;;;;;;;23.45;4.00;;;11.20;99.90;;;;;;5016724;28;20403;-86
2021/12/30 11:26:32;;;;;;;25.48;5.10;;;11.20;99.90;;;;;;5016449;28;20045;-81
2021/12/30 11:29:00;;;;;;;20.63;3.25;;;11.20;99.90;;;;;;5032785;28;20072;-86
2021/12/30 11:31:25;;;;;;;16.63;3.75;;;11.30;99.90;;;;;;5016455;28;20128;-81
2021/12/30 11:33:51;;;;;;;16.02;3.25;;;11.20;99.90;;;;;;5032996;28;20132;-85
2021/12/30 11:36:17;;;;;;;14.43;3.97;;;11.30;99.90;;;;;;5032813;28;20052;-81
2021/12/30 11:38:43;;;;;;;23.80;4.05;;;11.20;99.90;;;;;;5016168;28;20599;-86
2021/12/30 11:41:17;;;;;;;19.92;4.18;;;11.20;99.90;;;;;;5032999;28;20555;-85
2021/12/30 11:43:47;;;;;;;23.30;4.88;;;11.30;99.90;;;;;;5016131;28;20102;-81
2021/12/30 11:46:37;;;;;;;15.82;4.38;;;11.20;99.90;;;;;;5034348;28;20045;-80
2021/12/30 11:49:04;;;;;;;26.23;4.10;;;11.20;99.90;;;;;;5015866;28;20046;-80
2021/12/30 11:51:47;;;;;;;45.10;8.02;;;11.20;99.90;;;;;;5015980;28;20073;-80
2021/12/30 11:54:35;;;;;;;26.85;4.70;;;11.30;99.90;;;;;;5032579;28;20052;-80
2021/12/30 11:57:27;;;;;;;18.30;3.85;;;11.20;99.90;;;;;;5032366;28;20655;-81
2021/12/30 11:59:59;;;;;;;18.33;4.57;;;11.30;99.90;;;;;;5015810;28;20045;-80
2021/12/30 12:02:45;;;;;;;14.03;3.87;;;11.30;99.90;;;;;;5032589;28;20496;-80
2021/12/30 12:05:42;;;;;;;16.20;4.00;;;11.30;99.90;;;;;;5015402;28;20084;-80
2021/12/30 12:08:13;;;;;;;21.10;4.50;;;11.30;99.90;;;;;;5033149;28;20377;-80
2021/12/30 12:10:40;;;;;;;21.15;3.65;;;11.40;99.90;;;;;;5031970;28;20060;-84
2021/12/30 12:13:30;;;;;;;12.73;3.42;;;11.30;99.90;;;;;;5032527;28;20484;-85
2021/12/30 12:16:00;;;;;;;17.73;4.38;;;11.30;99.90;;;;;;5032173;28;20050;-79
2021/12/30 12:18:26;;;;;;;19.27;4.78;;;11.30;99.90;;;;;;5032102;28;20099;-86
2021/12/30 12:20:57;;;;;;;16.95;3.70;;;11.40;99.90;;;;;;5032266;28;20432;-84
2021/12/30 12:23:37;;;;;;;22.85;3.47;;;11.30;99.90;;;;;;5031827;28;20049;-85
2021/12/30 12:26:15;;;;;;;15.38;4.22;;;11.30;99.90;;;;;;5032111;28;20400;-80
2021/12/30 12:28:42;;;;;;;27.35;3.47;;;11.30;99.90;;;;;;5015443;28;20045;-79
2021/12/30 12:31:09;;;;;;;19.02;3.10;;;11.30;99.90;;;;;;5015417;28;20136;-86
2021/12/30 12:33:38;;;;;;;17.52;3.70;;;11.30;99.90;;;;;;5031909;28;20050;-80
2021/12/30 12:36:33;;;;;;;20.83;4.60;;;11.30;99.90;;;;;;5015441;28;20112;-85
2021/12/30 12:38:59;;;;;;;20.45;4.15;;;11.30;99.90;;;;;;5031801;28;20059;-81
2021/12/30 12:41:27;;;;;;;26.08;5.13;;;11.30;99.90;;;;;;5031707;28;20053;-85
2021/12/30 12:44:04;;;;;;;18.38;3.80;;;11.30;99.90;;;;;;5031628;28;20079;-86
2021/12/30 12:46:41;;;;;;;26.08;4.60;;;11.40;99.90;;;;;;5048673;28;20053;-80
2021/12/30 12:49:07;;;;;;;15.02;3.42;;;11.30;99.90;;;;;;5031870;28;20095;-86